Time;durP1;ratioP1;P1;durP2;ratioP2;P2;SDS_P1;SDS_P2;PMS_P1;PMS_P2;Temp;Humidity;BMP_temperature;BMP_pressure;BME280_temperature;BME280_humidity;BME280_pressure;Samples;Min_cycle;Max_cycle;Signal;HPM_P1;HPM_P2
2022/12/30 00:00:09;;;;;;;8.23;2.58;;;;;;;-0.35;100.00;99888.25;5021112;28;20029;-56
2022/12/30 00:02:35;;;;;;;1.00;0.30;;;;;;;-0.42;100.00;99886.31;5015146;28;20041;-54
2022/12/30 00:05:00;;;;;;;4.22;0.85;;;;;;;-0.43;100.00;99884.66;5020046;28;20041;-58
2022/12/30 00:07:26;;;;;;;2.72;0.32;;;;;;;-0.50;100.00;99886.97;5030046;28;20439;-57
2022/12/30 00:09:53;;;;;;;3.10;1.50;;;;;;;-0.50;100.00;99886.97;5023377;28;20132;-55
2022/12/30 00:34:27;;;;;;;2.15;0.65;;;;;;;-0.80;100.00;99851.41;5033154;28;20040;-58
2022/12/30 00:36:53;;;;;;;2.78;0.57;;;;;;;-0.94;100.00;99850.81;5034001;28;20253;-59
2022/12/30 00:39:18;;;;;;;3.67;0.52;;;;;;;-1.04;100.00;99849.16;5041702;28;20030;-58
2022/12/30 00:44:28;;;;;;;2.08;0.38;;;;;;;-1.01;100.00;99839.28;5048870;28;20091;-55
2022/12/30 00:46:55;;;;;;;2.58;0.63;;;;;;;-0.99;100.00;99849.56;5033408;28;20041;-56
2022/12/30 00:57:33;;;;;;;5.55;0.20;;;;;;;-0.96;100.00;99799.88;5031635;28;20653;-59
2022/12/30 00:59:59;;;;;;;5.00;1.33;;;;;;;-0.95;100.00;99804.13;5033142;28;20033;-55
2022/12/30 01:02:25;;;;;;;4.00;0.77;;;;;;;-0.92;100.00;99791.66;5036509;28;20033;-56
2022/12/30 01:04:50;;;;;;;1.73;0.65;;;;;;;-0.96;100.00;99792.06;5037449;28;20025;-57
2022/12/30 01:07:15;;;;;;;4.20;0.70;;;;;;;-0.98;100.00;99794.81;5030721;28;20033;-58
2022/12/30 01:09:41;;;;;;;4.80;0.43;;;;;;;-1.02;100.00;99792.59;5038722;28;20043;-58
2022/12/30 01:12:09;;;;;;;5.15;0.52;;;;;;;-1.03;100.00;99785.72;5035490;28;20027;-53
2022/12/30 01:14:40;;;;;;;0.35;0.25;;;;;;;-1.00;100.00;99798.50;5030266;28;20025;-57
2022/12/30 01:17:09;;;;;;;2.00;0.65;;;;;;;-0.98;100.00;99799.16;5029861;28;20029;-57
2022/12/30 01:19:35;;;;;;;3.53;0.60;;;;;;;-0.93;100.00;99795.22;5018007;28;20030;-59
2022/12/30 01:22:00;;;;;;;2.38;1.35;;;;;;;-0.90;100.00;99783.72;5019213;28;20505;-59
2022/12/30 01:24:26;;;;;;;1.55;0.45;;;;;;;-0.83;100.00;99784.00;5030772;28;20033;-59
2022/12/30 01:26:51;;;;;;;5.85;1.00;;;;;;;-0.75;100.00;99784.16;5026921;28;20053;-56
2022/12/30 01:29:26;;;;;;;2.75;0.45;;;;;;;-0.60;100.00;99781.97;5026075;28;20025;-56
2022/12/30 01:31:57;;;;;;;2.28;0.77;;;;;;;-0.45;100.00;99781.44;5031048;28;20032;-58
2022/12/30 01:34:23;;;;;;;8.55;1.27;;;;;;;0.05;100.00;99777.00;5035000;28;20453;-55
2022/12/30 01:36:49;;;;;;;14.90;2.53;;;;;;;0.70;100.00;99774.44;5030858;28;20128;-58
2022/12/30 01:39:14;;;;;;;13.80;2.53;;;;;;;1.03;100.00;99783.47;5038561;28;20119;-58
2022/12/30 01:41:40;;;;;;;18.80;3.65;;;;;;;1.15;100.00;99773.66;5032912;28;20382;-57
2022/12/30 01:44:42;;;;;;;9.52;1.65;;;;;;;1.48;100.00;99780.84;5039272;28;20044;-57
2022/12/30 01:47:11;;;;;;;4.90;1.65;;;;;;;1.75;100.00;99777.31;5029864;28;20057;-57
2022/12/30 01:49:41;;;;;;;7.30;2.58;;;;;;;1.95;100.00;99782.38;5035866;28;20056;-59
2022/12/30 01:52:07;;;;;;;8.60;0.95;;;;;;;2.11;100.00;99781.66;5032676;28;20502;-57
2022/12/30 01:54:35;;;;;;;2.17;0.32;;;;;;;2.17;100.00;99784.50;5030412;28;20037;-57
2022/12/30 01:57:05;;;;;;;8.30;1.23;;;;;;;2.25;100.00;99778.50;5028984;28;20034;-59
2022/12/30 01:59:31;;;;;;;6.97;0.75;;;;;;;2.31;100.00;99774.44;5036673;28;20029;-53
2022/12/30 02:01:57;;;;;;;2.92;0.75;;;;;;;2.47;100.00;99768.47;5035211;28;20026;-57
2022/12/30 02:04:25;;;;;;;8.00;0.88;;;;;;;2.54;100.00;99772.09;5034829;28;20029;-59
2022/12/30 02:07:34;;;;;;;2.80;0.38;;;;;;;2.68;100.00;99768.88;5052326;28;20410;-59
2022/12/30 02:09:59;;;;;;;4.15;0.30;;;;;;;2.73;100.00;99757.94;5060470;28;20388;-54
2022/12/30 02:12:25;;;;;;;6.43;0.65;;;;;;;2.76;100.00;99774.16;5063161;28;20054;-59
2022/12/30 02:14:53;;;;;;;2.75;0.68;;;;;;;2.84;100.00;99768.97;5037618;28;20037;-58
2022/12/30 02:17:25;;;;;;;3.08;1.75;;;;;;;2.92;100.00;99775.19;5033018;28;20026;-59
2022/12/30 02:20:10;;;;;;;;;;;;;;;3.07;100.00;99768.34;5029319;28;20076;-55
2022/12/30 02:23:00;;;;;;;6.30;1.45;;;;;;;3.13;100.00;99772.97;5033627;28;20232;-57
2022/12/30 02:25:39;;;;;;;9.85;0.80;;;;;;;3.13;100.00;99764.28;5035348;28;20501;-60
2022/12/30 02:28:34;;;;;;;4.40;1.17;;;;;;;3.26;100.00;99762.84;5029669;28;20064;-55
2022/12/30 02:31:17;;;;;;;2.83;0.70;;;;;;;3.28;100.00;99750.41;5028341;28;20533;-58
2022/12/30 02:34:17;;;;;;;3.45;0.85;;;;;;;3.44;100.00;99746.16;5022805;28;20083;-58
2022/12/30 02:36:45;;;;;;;3.20;0.17;;;;;;;3.53;100.00;99754.84;5031099;28;20069;-57
2022/12/30 02:39:26;;;;;;;6.47;1.40;;;;;;;3.64;100.00;99749.28;5031418;28;20521;-57
2022/12/30 02:45:04;;;;;;;2.65;0.40;;;;;;;3.78;100.00;99734.69;5018072;28;20099;-55
2022/12/30 02:47:38;;;;;;;0.95;0.20;;;;;;;3.76;100.00;99734.03;5021428;28;20042;-56
2022/12/30 02:52:55;;;;;;;4.47;0.30;;;;;;;3.91;100.00;99722.72;5030218;28;20052;-57
2022/12/30 02:55:21;;;;;;;5.95;0.45;;;;;;;4.06;100.00;99728.09;5016625;28;20030;-57
2022/12/30 02:57:46;;;;;;;9.82;0.65;;;;;;;4.19;100.00;99717.09;5024895;28;20087;-58
2022/12/30 03:03:58;;;;;;;2.88;2.45;;;;;;;4.53;100.00;99706.28;5024377;28;20125;-56
2022/12/30 03:06:50;;;;;;;8.18;0.40;;;;;;;4.69;100.00;99691.47;5019924;28;20049;-52
2022/12/30 03:09:39;;;;;;;12.10;0.75;;;;;;;4.80;100.00;99688.44;5026007;28;20041;-59
2022/12/30 03:12:21;;;;;;;7.63;0.55;;;;;;;4.82;100.00;99676.75;5024362;28;20037;-57
2022/12/30 03:14:56;;;;;;;7.93;0.30;;;;;;;4.86;100.00;99664.13;5023551;28;20425;-56
2022/12/30 03:17:26;;;;;;;2.35;0.20;;;;;;;4.85;100.00;99662.47;5027205;28;20061;-57
2022/12/30 03:19:56;;;;;;;7.55;1.15;;;;;;;4.88;100.00;99656.88;5024918;28;20063;-55
2022/12/30 03:27:56;;;;;;;9.75;0.73;;;;;;;4.97;100.00;99616.41;5027463;28;20039;-59
2022/12/30 03:30:22;;;;;;;15.45;1.02;;;;;;;4.94;100.00;99606.25;5020107;28;20509;-59
2022/12/30 03:32:47;;;;;;;14.60;0.93;;;;;;;5.02;100.00;99608.00;5019594;28;20067;-57
2022/12/30 03:35:13;;;;;;;4.25;0.30;;;;;;;5.11;100.00;99608.75;5022751;28;20057;-56
2022/12/30 03:37:43;;;;;;;9.25;0.63;;;;;;;5.05;100.00;99597.16;5032738;28;20083;-59
2022/12/30 03:40:18;;;;;;;4.90;1.42;;;;;;;5.20;100.00;99602.44;5031861;28;20032;-56
2022/12/30 03:42:46;;;;;;;3.05;0.40;;;;;;;5.25;100.00;99606.19;5028060;28;20033;-57
2022/12/30 03:45:13;;;;;;;9.20;1.90;;;;;;;5.41;100.00;99583.38;5030980;28;20604;-57
2022/12/30 03:47:38;;;;;;;6.57;1.35;;;;;;;5.42;100.00;99575.31;5024935;28;20035;-56
2022/12/30 03:50:04;;;;;;;10.50;0.55;;;;;;;5.41;100.00;99563.16;5026129;28;20053;-59
2022/12/30 03:52:30;;;;;;;9.27;2.90;;;;;;;5.36;100.00;99549.72;5030641;28;20550;-59
2022/12/30 03:54:55;;;;;;;6.55;1.55;;;;;;;5.35;100.00;99545.47;5027991;28;20099;-58
2022/12/30 03:57:20;;;;;;;19.02;1.17;;;;;;;5.46;100.00;99537.13;5029402;28;20029;-55
2022/12/30 03:59:46;;;;;;;12.82;1.73;;;;;;;5.54;100.00;99533.59;5030973;28;20036;-57
2022/12/30 04:02:11;;;;;;;5.65;1.65;;;;;;;5.46;100.00;99523.19;5040054;28;20075;-62
2022/12/30 04:04:36;;;;;;;12.60;2.33;;;;;;;5.57;100.00;99514.81;5027558;28;20029;-54
2022/12/30 04:07:02;;;;;;;10.35;0.55;;;;;;;5.61;100.00;99507.41;5036743;28;20091;-58
2022/12/30 04:09:28;;;;;;;7.35;1.30;;;;;;;5.58;100.00;99497.25;5029070;28;20053;-56
2022/12/30 04:11:53;;;;;;;7.00;0.45;;;;;;;5.63;100.00;99489.63;5027646;28;20104;-57
2022/12/30 04:14:18;;;;;;;5.90;1.60;;;;;;;5.73;100.00;99482.28;5020015;28;20026;-57
2022/12/30 04:16:44;;;;;;;8.93;0.52;;;;;;;5.69;100.00;99471.28;5027383;28;20501;-56
2022/12/30 04:19:09;;;;;;;14.32;1.23;;;;;;;5.70;100.00;99453.69;5019745;28;20026;-56
2022/12/30 04:21:35;;;;;;;7.85;0.43;;;;;;;5.69;100.00;99447.63;5025839;28;20097;-57
2022/12/30 04:24:00;;;;;;;6.38;1.33;;;;;;;5.67;100.00;99428.56;5027939;28;20048;-56
2022/12/30 04:26:26;;;;;;;7.40;2.67;;;;;;;5.67;100.00;99430.38;5019233;28;20055;-56
2022/12/30 04:28:51;;;;;;;3.92;0.90;;;;;;;5.69;100.00;99418.69;5022238;28;20029;-55
2022/12/30 04:31:16;;;;;;;11.88;2.25;;;;;;;5.72;100.00;99414.06;5027369;28;20017;-58
2022/12/30 04:33:42;;;;;;;11.25;1.50;;;;;;;5.71;100.00;99400.09;5024935;28;20048;-58
2022/12/30 04:36:08;;;;;;;5.15;1.65;;;;;;;5.62;100.00;99404.63;5027352;28;20052;-58
2022/12/30 04:38:33;;;;;;;6.85;1.20;;;;;;;5.69;100.00;99391.56;5021911;28;20387;-56
2022/12/30 04:40:59;;;;;;;8.18;0.50;;;;;;;5.67;100.00;99390.94;5021540;28;20091;-56
2022/12/30 04:43:25;;;;;;;7.65;0.75;;;;;;;5.72;100.00;99378.03;5026493;28;20396;-57
2022/12/30 04:45:50;;;;;;;3.15;0.88;;;;;;;5.77;100.00;99362.53;5025925;28;20018;-57
2022/12/30 04:48:16;;;;;;;13.35;2.20;;;;;;;5.76;100.00;99360.91;5021864;28;20030;-57
2022/12/30 04:50:43;;;;;;;7.85;0.93;;;;;;;5.77;100.00;99351.19;5027337;28;20495;-54
2022/12/30 04:53:09;;;;;;;4.93;0.77;;;;;;;5.89;100.00;99350.50;5033733;28;20386;-62
2022/12/30 04:55:35;;;;;;;6.72;1.25;;;;;;;5.77;100.00;99341.47;5033998;28;20037;-62
2022/12/30 04:58:00;;;;;;;9.25;1.90;;;;;;;5.97;100.00;99323.28;5027901;28;20022;-55
2022/12/30 05:00:26;;;;;;;9.90;0.47;;;;;;;6.09;100.00;99300.72;5032665;28;20379;-57
2022/12/30 05:02:51;;;;;;;2.33;0.85;;;;;;;6.10;100.00;99304.97;5032146;28;20037;-58
2022/12/30 05:05:17;;;;;;;4.82;1.25;;;;;;;6.07;100.00;99292.19;5039203;28;20068;-55
2022/12/30 05:07:42;;;;;;;6.85;0.68;;;;;;;6.04;100.00;99283.84;5033795;28;20025;-56
2022/12/30 05:10:07;;;;;;;4.35;0.65;;;;;;;6.01;100.00;99271.09;5036364;28;20037;-57
2022/12/30 05:12:33;;;;;;;5.75;1.00;;;;;;;6.03;100.00;99253.28;5030804;28;20034;-56
2022/12/30 05:14:58;;;;;;;21.33;2.80;;;;;;;6.19;100.00;99255.63;5044007;28;20024;-57
2022/12/30 05:17:23;;;;;;;10.93;0.95;;;;;;;6.09;100.00;99252.50;5036651;28;20044;-56
2022/12/30 05:19:49;;;;;;;3.20;0.80;;;;;;;6.15;100.00;99238.59;5036223;28;20394;-54
2022/12/30 05:22:14;;;;;;;5.47;0.60;;;;;;;6.20;100.00;99219.63;5033061;28;20029;-57
2022/12/30 05:27:23;;;;;;;5.38;1.38;;;;;;;6.29;100.00;99208.72;5034706;28;20441;-56
2022/12/30 05:29:48;;;;;;;3.78;0.38;;;;;;;6.38;100.00;99203.31;5031356;28;20037;-54
2022/12/30 05:32:14;;;;;;;6.78;0.25;;;;;;;6.44;100.00;99186.72;5024012;28;20053;-57
2022/12/30 05:34:39;;;;;;;10.73;2.40;;;;;;;6.49;100.00;99173.78;5026384;28;20078;-64
2022/12/30 05:37:05;;;;;;;3.40;0.98;;;;;;;6.56;100.00;99179.91;5029988;28;20061;-57
2022/12/30 05:39:30;;;;;;;8.25;0.70;;;;;;;6.62;100.00;99173.84;5026038;28;20083;-59
2022/12/30 05:41:55;;;;;;;12.02;0.65;;;;;;;6.57;100.00;99165.72;5030014;28;20029;-59
2022/12/30 05:44:21;;;;;;;4.72;0.50;;;;;;;6.50;100.00;99159.59;5028868;28;20364;-61
2022/12/30 05:46:46;;;;;;;3.63;1.38;;;;;;;6.58;100.00;99159.41;5030526;28;20426;-58
2022/12/30 05:49:11;;;;;;;4.63;0.50;;;;;;;7.05;100.00;99143.72;5034026;28;20061;-61
2022/12/30 05:51:36;;;;;;;2.92;0.57;;;;;;;7.26;100.00;99133.03;5029437;28;20112;-59
2022/12/30 05:54:03;;;;;;;7.97;0.80;;;;;;;7.03;100.00;99112.31;5040560;28;20494;-61
2022/12/30 05:56:28;;;;;;;4.35;0.80;;;;;;;7.02;100.00;99102.78;5029395;28;20034;-61
2022/12/30 05:58:55;;;;;;;4.53;1.08;;;;;;;7.14;100.00;99089.81;5038416;28;20039;-59
2022/12/30 06:01:20;;;;;;;4.50;0.63;;;;;;;7.25;100.00;99085.75;5031900;28;20033;-58
2022/12/30 06:03:45;;;;;;;2.95;0.20;;;;;;;6.85;100.00;99072.56;5034565;28;20387;-60
2022/12/30 06:06:11;;;;;;;8.82;0.77;;;;;;;6.77;100.00;99071.75;5022775;28;20108;-59
2022/12/30 06:08:37;;;;;;;6.20;0.77;;;;;;;6.76;100.00;99064.88;5028983;28;20064;-64
2022/12/30 06:11:03;;;;;;;5.53;1.00;;;;;;;6.80;100.00;99053.94;5030424;28;20387;-59
2022/12/30 06:13:29;;;;;;;4.65;0.70;;;;;;;6.84;100.00;99055.13;5037054;28;20088;-62
2022/12/30 06:15:54;;;;;;;15.10;2.35;;;;;;;6.90;100.00;99049.06;5033667;28;20459;-55
2022/12/30 06:18:20;;;;;;;4.68;0.30;;;;;;;6.97;100.00;99045.44;5025279;28;20033;-56
2022/12/30 06:20:46;;;;;;;2.95;0.22;;;;;;;7.00;100.00;99031.03;5024955;28;20160;-55
2022/12/30 06:23:12;;;;;;;11.45;1.08;;;;;;;6.99;100.00;99017.03;5024742;28;20096;-54
2022/12/30 06:25:37;;;;;;;8.23;1.45;;;;;;;7.04;100.00;99008.50;5028913;28;20029;-58
2022/12/30 06:28:03;;;;;;;2.05;0.80;;;;;;;7.09;100.00;99010.53;5032184;28;20041;-55
2022/12/30 06:30:29;;;;;;;7.25;1.10;;;;;;;7.13;100.00;99003.88;5028930;28;20540;-55
2022/12/30 06:32:54;;;;;;;10.20;1.27;;;;;;;7.18;100.00;98986.41;5024436;28;20096;-52
2022/12/30 06:35:20;;;;;;;4.75;1.20;;;;;;;7.19;100.00;98990.66;5025441;28;20157;-58
2022/12/30 06:37:45;;;;;;;6.32;1.35;;;;;;;7.21;100.00;98972.81;5025779;28;20052;-62
2022/12/30 06:40:11;;;;;;;7.00;1.33;;;;;;;7.33;100.00;98982.72;5027300;28;20040;-53
2022/12/30 06:42:36;;;;;;;3.75;1.00;;;;;;;7.38;100.00;98981.09;5023225;28;20030;-54
2022/12/30 06:45:02;;;;;;;3.78;0.73;;;;;;;7.45;100.00;98980.28;5026452;28;20033;-52
2022/12/30 06:47:27;;;;;;;2.55;0.60;;;;;;;7.45;100.00;98977.63;5037475;28;20022;-59
2022/12/30 06:49:53;;;;;;;2.78;1.25;;;;;;;7.48;100.00;98980.66;5027662;28;20053;-58
2022/12/30 06:52:18;;;;;;;6.78;0.65;;;;;;;7.56;100.00;98959.34;5025316;28;20057;-55
2022/12/30 06:54:43;;;;;;;7.55;0.73;;;;;;;7.60;100.00;98959.72;5021166;28;20029;-56
2022/12/30 06:57:09;;;;;;;19.33;2.40;;;;;;;7.62;100.00;98958.50;5028065;28;20025;-59
2022/12/30 06:59:34;;;;;;;11.07;1.05;;;;;;;7.65;100.00;98942.25;5036106;28;20038;-55
2022/12/30 07:01:59;;;;;;;11.45;0.63;;;;;;;7.67;100.00;98920.94;5022813;28;20025;-56
2022/12/30 07:04:25;;;;;;;9.10;1.65;;;;;;;7.72;100.00;98920.28;5017795;28;20076;-57
2022/12/30 07:06:51;;;;;;;5.25;0.60;;;;;;;7.74;100.00;98918.25;5025803;28;20036;-55
2022/12/30 07:09:16;;;;;;;10.18;0.68;;;;;;;7.73;100.00;98919.28;5027823;28;20037;-55
2022/12/30 07:11:41;;;;;;;3.78;0.90;;;;;;;7.73;100.00;98912.19;5021561;28;20033;-57
2022/12/30 07:14:07;;;;;;;6.22;2.22;;;;;;;7.77;100.00;98907.28;5017441;28;20037;-56
2022/12/30 07:16:32;;;;;;;1.77;0.38;;;;;;;7.74;100.00;98899.78;5025444;28;20021;-57
2022/12/30 07:18:58;;;;;;;6.72;0.55;;;;;;;7.67;100.00;98885.81;5026578;28;20150;-55
2022/12/30 07:21:23;;;;;;;7.85;2.45;;;;;;;7.64;100.00;98890.53;5025635;28;20063;-59
2022/12/30 07:23:48;;;;;;;6.85;0.98;;;;;;;7.68;100.00;98887.47;5014321;28;20091;-56
2022/12/30 07:26:14;;;;;;;9.95;0.95;;;;;;;7.64;100.00;98897.59;5027728;28;20102;-53
2022/12/30 07:28:39;;;;;;;4.85;0.93;;;;;;;7.61;100.00;98877.72;5028354;28;20112;-55
2022/12/30 07:31:04;;;;;;;1.55;0.55;;;;;;;7.62;100.00;98862.75;5030209;28;20033;-64
2022/12/30 07:33:30;;;;;;;10.32;1.17;;;;;;;7.65;100.00;98862.31;5013178;28;20486;-58
2022/12/30 07:35:55;;;;;;;8.38;1.33;;;;;;;7.63;100.00;98854.59;5022266;28;20407;-62
2022/12/30 07:38:20;;;;;;;14.00;2.03;;;;;;;7.62;100.00;98853.00;5021267;28;20026;-55
2022/12/30 07:40:46;;;;;;;11.90;0.77;;;;;;;7.67;100.00;98839.16;5024855;28;20057;-62
2022/12/30 07:43:11;;;;;;;4.85;0.90;;;;;;;7.82;100.00;98828.31;5019050;28;20025;-54
2022/12/30 07:45:36;;;;;;;8.30;1.45;;;;;;;7.87;100.00;98812.63;5018175;28;20029;-56
2022/12/30 07:48:03;;;;;;;7.90;0.90;;;;;;;7.85;100.00;98809.44;5023323;28;20057;-54
2022/12/30 07:50:29;;;;;;;2.92;0.98;;;;;;;7.77;100.00;98807.03;5027562;28;20084;-58
2022/12/30 07:52:54;;;;;;;7.75;1.15;;;;;;;7.72;100.00;98793.66;5014805;28;20537;-56
2022/12/30 07:55:20;;;;;;;4.05;0.65;;;;;;;7.74;100.00;98783.72;5019637;28;20033;-60
2022/12/30 07:57:45;;;;;;;17.40;4.32;;;;;;;7.76;100.00;98774.56;5028267;28;20111;-56
2022/12/30 08:00:12;;;;;;;9.85;0.47;;;;;;;7.80;100.00;98765.22;5023898;28;20025;-57
2022/12/30 08:02:38;;;;;;;9.38;2.20;;;;;;;7.75;100.00;98759.75;5022960;28;20041;-58
2022/12/30 08:05:05;;;;;;;9.30;1.55;;;;;;;7.72;100.00;98760.19;5026160;28;20030;-54
2022/12/30 08:07:30;;;;;;;3.45;0.75;;;;;;;7.74;100.00;98759.97;5019051;28;20037;-56
2022/12/30 08:09:55;;;;;;;4.38;1.80;;;;;;;7.77;100.00;98754.25;5021078;28;20038;-57
2022/12/30 08:12:21;;;;;;;2.85;0.20;;;;;;;7.75;100.00;98738.66;5028077;28;20534;-57
2022/12/30 08:14:46;;;;;;;6.22;0.90;;;;;;;7.80;100.00;98740.66;5042695;28;20025;-62
2022/12/30 08:17:11;;;;;;;2.10;0.28;;;;;;;7.81;100.00;98739.63;5022940;28;20025;-59
2022/12/30 08:19:37;;;;;;;4.45;0.57;;;;;;;7.80;100.00;98730.09;5017876;28;20044;-54
2022/12/30 08:22:02;;;;;;;1.95;0.30;;;;;;;7.84;100.00;98710.97;5021681;28;20110;-54
2022/12/30 08:24:28;;;;;;;5.13;0.75;;;;;;;7.85;100.00;98706.53;5028978;28;20026;-54
2022/12/30 08:26:53;;;;;;;6.63;1.40;;;;;;;7.79;100.00;98699.44;5022779;28;20048;-52
2022/12/30 08:29:18;;;;;;;6.32;0.45;;;;;;;7.81;100.00;98700.84;5024464;28;20033;-53
2022/12/30 08:31:49;;;;;;;2.95;1.05;;;;;;;7.81;100.00;98678.94;5035590;28;20489;-54
2022/12/30 08:34:18;;;;;;;6.17;0.90;;;;;;;7.80;100.00;98678.13;5022401;28;20036;-51
2022/12/30 08:36:44;;;;;;;8.05;2.13;;;;;;;7.74;100.00;98663.16;5017056;28;20579;-51
2022/12/30 08:39:09;;;;;;;3.40;0.73;;;;;;;7.71;100.00;98660.97;5020940;28;20029;-53
2022/12/30 08:41:38;;;;;;;3.95;0.35;;;;;;;7.71;100.00;98662.78;5027105;28;20029;-52
2022/12/30 08:44:05;;;;;;;4.93;0.32;;;;;;;7.69;100.00;98649.00;5023526;28;20505;-55
2022/12/30 08:46:32;;;;;;;11.27;0.35;;;;;;;7.71;100.00;98636.41;5020564;28;20383;-55
2022/12/30 08:48:57;;;;;;;3.67;0.17;;;;;;;7.63;100.00;98625.09;5018338;28;20057;-62
2022/12/30 08:51:23;;;;;;;3.88;0.13;;;;;;;7.63;100.00;98617.19;5023666;28;20053;-56
2022/12/30 08:53:49;;;;;;;1.92;0.73;;;;;;;7.60;100.00;98607.09;5023922;28;20032;-58
2022/12/30 08:56:19;;;;;;;10.32;0.30;;;;;;;7.68;100.00;98587.53;5021380;28;20033;-56
2022/12/30 08:58:46;;;;;;;5.65;0.10;;;;;;;7.63;100.00;98577.63;5021976;28;20029;-57
2022/12/30 09:01:17;;;;;;;6.22;0.95;;;;;;;7.76;100.00;98578.53;5017805;28;20034;-57
2022/12/30 09:03:43;;;;;;;2.75;0.20;;;;;;;7.73;100.00;98571.84;5022125;28;20021;-58
2022/12/30 09:06:11;;;;;;;1.25;0.10;;;;;;;7.76;100.00;98560.06;5019924;28;20025;-54
2022/12/30 09:08:37;;;;;;;0.93;0.50;;;;;;;7.65;100.00;98567.66;5022690;28;20116;-59
2022/12/30 09:11:05;;;;;;;1.95;0.03;;;;;;;7.67;100.00;98556.09;5021614;28;20036;-53
2022/12/30 09:13:31;;;;;;;2.85;0.00;;;;;;;7.68;100.00;98544.53;5024139;28;20495;-58
2022/12/30 09:15:58;;;;;;;1.70;0.20;;;;;;;7.75;100.00;98529.44;5029721;28;20083;-54
2022/12/30 09:18:23;;;;;;;3.40;0.15;;;;;;;7.66;100.00;98531.53;5039835;28;20371;-53
2022/12/30 09:20:49;;;;;;;0.73;0.73;;;;;;;7.73;100.00;98521.72;5025177;28;20041;-54
2022/12/30 09:23:15;;;;;;;0.30;0.10;;;;;;;7.74;100.00;98510.16;5026871;28;20044;-52
2022/12/30 09:25:41;;;;;;;1.88;0.00;;;;;;;7.83;100.00;98502.75;5024942;28;20114;-54
2022/12/30 09:28:06;;;;;;;5.15;0.10;;;;;;;7.89;100.00;98509.78;5028414;28;20024;-54
2022/12/30 09:30:31;;;;;;;0.70;0.00;;;;;;;7.84;100.00;98504.34;5020946;28;20069;-53
2022/12/30 09:32:57;;;;;;;0.75;0.00;;;;;;;7.93;100.00;98504.88;5018909;28;20025;-54
2022/12/30 09:35:22;;;;;;;2.45;0.15;;;;;;;7.93;100.00;98499.59;5019725;28;20475;-56
2022/12/30 09:37:48;;;;;;;0.15;0.10;;;;;;;7.87;100.00;98498.63;5025007;28;20458;-54
2022/12/30 09:40:17;;;;;;;1.88;0.22;;;;;;;7.87;100.00;98488.06;5023003;28;20030;-52
2022/12/30 09:45:41;;;;;;;1.20;0.10;;;;;;;7.90;100.00;98474.47;5030892;28;20439;-56
2022/12/30 09:48:13;;;;;;;4.22;0.10;;;;;;;7.93;100.00;98466.09;5022800;28;20493;-55
2022/12/30 09:50:58;;;;;;;0.15;0.00;;;;;;;7.95;100.00;98458.78;5027479;28;20483;-52
2022/12/30 09:53:36;;;;;;;1.00;0.00;;;;;;;8.00;100.00;98460.72;5024280;28;20030;-53
2022/12/30 09:56:11;;;;;;;0.30;0.00;;;;;;;8.04;100.00;98452.13;5027826;28;20398;-52
2022/12/30 09:58:37;;;;;;;2.95;0.13;;;;;;;8.04;100.00;98443.41;5026790;28;20053;-58
2022/12/30 10:01:19;;;;;;;2.17;0.00;;;;;;;8.05;100.00;98434.47;5023813;28;20475;-57
2022/12/30 10:03:44;;;;;;;1.55;0.20;;;;;;;8.05;100.00;98432.66;5039442;28;20063;-59
2022/12/30 10:06:16;;;;;;;1.65;0.00;;;;;;;8.05;100.00;98430.00;5023428;28;20295;-59
2022/12/30 10:08:59;;;;;;;2.47;0.00;;;;;;;8.16;100.00;98440.81;5028766;28;20026;-57
2022/12/30 10:11:49;;;;;;;0.77;0.05;;;;;;;8.20;100.00;98431.41;5030418;28;20098;-58
2022/12/30 10:14:51;;;;;;;0.20;0.00;;;;;;;8.19;100.00;98430.63;5026988;28;20033;-56
2022/12/30 10:17:47;;;;;;;1.05;0.00;;;;;;;8.23;100.00;98396.63;5022807;28;20021;-57
2022/12/30 10:20:58;;;;;;;0.93;0.15;;;;;;;8.26;100.00;98425.22;5030849;28;20115;-53
2022/12/30 10:24:22;;;;;;;1.48;0.32;;;;;;;8.25;100.00;98429.69;5027345;28;20042;-53
2022/12/30 10:26:50;;;;;;;0.45;0.00;;;;;;;8.23;100.00;98409.84;5059319;28;20032;-59
2022/12/30 10:29:24;;;;;;;0.20;0.00;;;;;;;8.25;100.00;98398.03;5061833;28;20028;-58
2022/12/30 10:31:52;;;;;;;0.75;0.68;;;;;;;8.28;100.00;98380.91;5043377;28;20120;-56
2022/12/30 10:34:21;;;;;;;0.30;0.00;;;;;;;8.30;100.00;98377.03;5023152;28;20049;-52
2022/12/30 10:36:55;;;;;;;0.00;0.00;;;;;;;8.25;100.00;98371.63;5029020;28;20391;-57
2022/12/30 10:39:24;;;;;;;0.15;0.15;;;;;;;8.30;100.00;98377.03;5024257;28;20386;-53
2022/12/30 10:42:11;;;;;;;2.08;1.08;;;;;;;8.39;100.00;98360.84;5024182;28;20116;-53
2022/12/30 10:45:16;;;;;;;0.10;0.00;;;;;;;8.38;100.00;98338.91;5022599;28;20495;-54
2022/12/30 10:48:06;;;;;;;0.10;0.10;;;;;;;8.40;100.00;98328.97;5021521;28;20077;-52
2022/12/30 10:50:45;;;;;;;2.05;0.20;;;;;;;8.48;100.00;98318.06;5022560;28;20076;-55
2022/12/30 10:53:19;;;;;;;0.40;0.10;;;;;;;8.54;100.00;98316.31;5027691;28;20025;-57
2022/12/30 10:55:55;;;;;;;0.00;0.00;;;;;;;8.60;100.00;98309.34;5024319;28;20475;-55
2022/12/30 10:58:29;;;;;;;0.25;0.00;;;;;;;8.61;100.00;98295.09;5024155;28;20047;-52
2022/12/30 11:00:55;;;;;;;0.20;0.00;;;;;;;8.65;100.00;98294.41;5023492;28;20026;-58
2022/12/30 11:03:29;;;;;;;0.10;0.00;;;;;;;8.75;100.00;98285.84;5024823;28;20057;-58
2022/12/30 11:05:54;;;;;;;1.17;0.38;;;;;;;8.83;100.00;98266.19;5020080;28;20029;-53
2022/12/30 11:08:26;;;;;;;0.57;0.00;;;;;;;8.91;100.00;98287.81;5024749;28;20032;-52
2022/12/30 11:11:02;;;;;;;;;;;;;;;8.95;100.00;98293.41;5020750;28;20017;-57
2022/12/30 11:16:13;;;;;;;3.13;0.00;;;;;;;9.06;100.00;98274.09;5017517;28;20541;-56
2022/12/30 11:18:44;;;;;;;0.52;0.00;;;;;;;9.06;100.00;98291.78;5013902;28;20049;-58
2022/12/30 11:21:09;;;;;;;0.10;0.10;;;;;;;9.13;100.00;98282.66;5005198;28;20518;-51
2022/12/30 11:23:40;;;;;;;0.45;0.10;;;;;;;9.22;100.00;98301.63;5013360;28;20037;-55
2022/12/30 11:26:20;;;;;;;0.17;0.00;;;;;;;9.29;100.00;98312.88;5017702;28;20041;-51
2022/12/30 11:28:59;;;;;;;0.03;0.03;;;;;;;9.31;100.00;98294.13;5019282;28;20033;-53
2022/12/30 11:31:40;;;;;;;0.00;0.00;;;;;;;9.35;100.00;98277.53;5017621;28;20030;-50
2022/12/30 11:34:13;;;;;;;0.77;0.00;;;;;;;9.42;100.00;98271.28;5015674;28;20033;-51
2022/12/30 11:36:38;;;;;;;0.22;0.00;;;;;;;9.45;100.00;98263.72;5010965;28;20629;-56
2022/12/30 11:39:03;;;;;;;0.00;0.00;;;;;;;9.59;100.00;98266.84;5014847;28;20033;-52
2022/12/30 11:41:33;;;;;;;0.10;0.00;;;;;;;9.77;100.00;98266.63;5021496;28;20041;-53
2022/12/30 11:43:58;;;;;;;1.90;0.00;;;;;;;9.79;100.00;98263.75;5011187;28;20428;-52
2022/12/30 11:46:28;;;;;;;1.75;0.00;;;;;;;9.90;100.00;98254.13;5012904;28;20064;-56
2022/12/30 11:48:56;;;;;;;0.10;0.10;;;;;;;9.95;100.00;98256.84;5014634;28;20401;-52
2022/12/30 11:51:30;;;;;;;0.40;0.00;;;;;;;9.97;100.00;98249.47;5015408;28;20095;-50
2022/12/30 11:54:04;;;;;;;0.57;0.05;;;;;;;10.02;100.00;98247.69;5013095;28;20132;-52
2022/12/30 11:56:30;;;;;;;0.08;0.00;;;;;;;10.09;100.00;98255.47;5014634;28;20417;-53
2022/12/30 11:58:59;;;;;;;0.20;0.10;;;;;;;10.17;100.00;98260.38;5011986;28;20107;-51
2022/12/30 12:01:25;;;;;;;1.75;0.85;;;;;;;10.32;100.00;98267.75;5016088;28;20029;-54
2022/12/30 12:03:55;;;;;;;1.08;0.00;;;;;;;10.39;100.00;98263.09;5021382;28;20086;-51
2022/12/30 12:06:20;;;;;;;0.63;0.05;;;;;;;10.43;100.00;98268.72;5021140;28;20033;-55
2022/12/30 12:09:12;;;;;;;1.80;0.10;;;;;;;10.56;100.00;98262.25;5019082;28;20048;-54
2022/12/30 12:11:44;;;;;;;0.00;0.00;;;;;;;10.59;100.00;98264.44;5028885;28;20029;-53
2022/12/30 12:14:22;;;;;;;0.10;0.00;;;;;;;10.65;100.00;98271.38;5020643;28;20383;-54
2022/12/30 12:16:56;;;;;;;1.75;0.10;;;;;;;10.79;100.00;98282.44;5017382;28;20032;-54
2022/12/30 12:19:27;;;;;;;3.97;0.52;;;;;;;10.77;100.00;98292.50;5021623;28;20307;-51
2022/12/30 12:21:56;;;;;;;7.72;1.00;;;;;;;10.85;100.00;98289.41;5020997;28;20033;-55
2022/12/30 12:24:22;;;;;;;1.08;0.73;;;;;;;10.95;100.00;98299.34;5023848;28;20034;-55
2022/12/30 12:27:09;;;;;;;1.17;0.38;;;;;;;11.10;100.00;98307.47;5022823;28;20040;-54
2022/12/30 12:29:35;;;;;;;2.60;0.88;;;;;;;11.22;100.00;98312.66;5015954;28;20647;-53
2022/12/30 12:32:41;;;;;;;1.42;0.30;;;;;;;11.39;100.00;98321.34;5027671;28;20037;-52
2022/12/30 12:35:16;;;;;;;2.42;0.70;;;;;;;11.38;100.00;98311.75;5023302;28;20030;-56
2022/12/30 12:38:00;;;;;;;14.85;6.13;;;;;;;11.48;100.00;98314.53;5020286;28;20414;-55